createdAt,value
2022-11-15T00:01:08.175Z,35.57
2022-11-15T00:03:57.896Z,36.57
2022-11-15T00:06:49.928Z,35.43
2022-11-15T00:09:35.569Z,36.53
2022-11-15T00:12:21.323Z,40.90
2022-11-15T00:15:09.426Z,39.73
2022-11-15T00:18:15.045Z,41.07
2022-11-15T00:21:07.249Z,42.33
2022-11-15T00:24:24.727Z,37.73
2022-11-15T00:27:11.729Z,41.63
2022-11-15T00:29:57.450Z,41.03
2022-11-15T00:32:45.565Z,41.10
2022-11-15T00:35:50.627Z,40.53
2022-11-15T00:38:40.188Z,39.00
2022-11-15T00:42:08.493Z,42.87
2022-11-15T00:49:13.972Z,38.67
2022-11-15T00:56:18.813Z,38.63
2022-11-15T01:03:33.516Z,41.33
2022-11-15T01:10:27.423Z,41.70
2022-11-15T01:13:13.327Z,45.20
2022-11-15T01:16:19.542Z,39.23
2022-11-15T01:19:05.425Z,45.77
2022-11-15T01:21:52.775Z,45.70
2022-11-15T01:24:40.811Z,48.40
2022-11-15T01:27:30.614Z,52.33
2022-11-15T01:30:16.775Z,52.60
2022-11-15T01:33:07.710Z,54.27
2022-11-15T01:35:58.290Z,51.50
2022-11-15T01:39:04.080Z,49.67
2022-11-15T01:41:51.035Z,47.23
2022-11-15T01:45:02.173Z,54.17
2022-11-15T01:47:56.721Z,45.77
2022-11-15T01:51:23.540Z,44.17
2022-11-15T01:54:35.010Z,43.63
2022-11-15T01:57:44.196Z,51.17
2022-11-15T02:00:33.110Z,46.90
2022-11-15T02:03:53.127Z,52.30
2022-11-15T02:06:42.683Z,50.07
2022-11-15T02:09:53.121Z,47.20
2022-11-15T02:12:39.179Z,49.93
2022-11-15T02:15:48.040Z,52.23
2022-11-15T02:18:47.808Z,45.97
2022-11-15T02:22:11.128Z,51.37
2022-11-15T02:25:10.235Z,50.00
2022-11-15T02:28:24.750Z,50.67
2022-11-15T02:31:22.905Z,52.17
2022-11-15T02:35:08.415Z,53.17
2022-11-15T02:38:37.933Z,47.07
2022-11-15T02:41:53.402Z,57.90
2022-11-15T02:44:44.636Z,47.03
2022-11-15T02:47:45.425Z,41.17
2022-11-15T02:50:37.091Z,52.27
2022-11-15T02:53:30.195Z,44.77
2022-11-15T02:56:16.265Z,49.00
2022-11-15T02:59:36.178Z,55.73
2022-11-15T03:02:32.845Z,42.63
2022-11-15T03:05:55.178Z,41.13
2022-11-15T03:08:54.871Z,39.20
2022-11-15T03:11:54.761Z,37.13
2022-11-15T03:14:58.530Z,40.50
2022-11-15T03:18:13.931Z,39.83
2022-11-15T03:21:06.097Z,41.20
2022-11-15T03:24:24.668Z,41.73
2022-11-15T03:27:15.966Z,42.67
2022-11-15T03:30:05.427Z,43.40
2022-11-15T03:32:59.094Z,45.07
2022-11-15T03:36:00.771Z,40.13
2022-11-15T03:38:58.043Z,40.63
2022-11-15T03:42:26.824Z,42.00
2022-11-15T03:45:15.431Z,42.27
2022-11-15T03:48:20.511Z,42.27
2022-11-15T03:51:13.382Z,39.87
2022-11-15T03:54:10.507Z,39.30
2022-11-15T03:57:00.075Z,41.43
2022-11-15T04:00:08.958Z,42.80
2022-11-15T04:02:58.522Z,40.73
2022-11-15T04:06:18.467Z,35.53
2022-11-15T04:09:06.156Z,41.63
2022-11-15T04:12:31.808Z,41.30
2022-11-15T04:15:22.893Z,36.37
2022-11-15T04:18:27.301Z,37.30
2022-11-15T04:21:32.701Z,38.30
2022-11-15T04:24:33.155Z,47.77
2022-11-15T04:27:18.856Z,52.17
2022-11-15T04:30:17.206Z,43.50
2022-11-15T04:33:04.084Z,37.93
2022-11-15T04:36:11.897Z,40.10
2022-11-15T04:38:59.978Z,41.37
2022-11-15T04:41:52.018Z,38.67
2022-11-15T04:44:38.037Z,42.60
2022-11-15T04:47:32.203Z,41.87
2022-11-15T04:50:18.629Z,38.30
2022-11-15T04:53:14.570Z,38.27
2022-11-15T04:56:01.703Z,40.07
2022-11-15T04:58:52.694Z,41.97
2022-11-15T05:01:45.084Z,35.67
2022-11-15T05:04:31.033Z,42.63
2022-11-15T05:07:16.615Z,50.03
2022-11-15T05:10:10.057Z,55.20
2022-11-15T05:13:20.939Z,52.60
2022-11-15T05:16:22.087Z,49.87
2022-11-15T05:19:08.410Z,83.63
2022-11-15T05:21:54.416Z,70.37
2022-11-15T05:24:44.197Z,57.40
2022-11-15T05:27:30.166Z,39.87
2022-11-15T05:30:18.229Z,51.80
2022-11-15T05:33:25.082Z,47.73
2022-11-15T05:36:42.054Z,42.80
2022-11-15T05:39:41.909Z,49.60
2022-11-15T05:42:31.497Z,42.13
2022-11-15T05:45:27.757Z,40.10
2022-11-15T05:48:16.792Z,46.20
2022-11-15T05:51:04.172Z,49.73
2022-11-15T05:53:52.451Z,48.30
2022-11-15T05:56:56.982Z,46.53
2022-11-15T05:59:44.666Z,49.30
2022-11-15T06:02:52.294Z,53.20
2022-11-15T06:05:37.939Z,52.23
2022-11-15T06:08:33.180Z,49.63
2022-11-15T06:11:19.257Z,43.43
2022-11-15T06:14:10.298Z,46.33
2022-11-15T06:16:57.068Z,47.63
2022-11-15T06:19:55.120Z,49.23
2022-11-15T06:22:44.244Z,48.67
2022-11-15T06:25:34.273Z,48.10
2022-11-15T06:28:22.379Z,47.27
2022-11-15T06:31:12.393Z,40.30
2022-11-15T06:33:58.382Z,59.57
2022-11-15T06:36:44.186Z,40.40
2022-11-15T06:39:29.864Z,38.50
2022-11-15T06:42:17.924Z,44.90
2022-11-15T06:45:09.578Z,40.07
2022-11-15T06:47:55.175Z,41.83
2022-11-15T06:50:42.883Z,36.60
2022-11-15T06:53:39.212Z,37.97
2022-11-15T06:56:25.214Z,37.53
2022-11-15T06:59:12.118Z,35.17
2022-11-15T07:02:00.123Z,35.03
2022-11-15T07:04:52.191Z,36.97
2022-11-15T07:07:39.694Z,37.80
2022-11-15T07:10:29.696Z,36.93
2022-11-15T07:13:16.796Z,38.33
2022-11-15T07:16:17.694Z,35.50
2022-11-15T07:19:29.009Z,44.40
2022-11-15T07:22:47.141Z,52.83
2022-11-15T07:25:38.109Z,44.13
2022-11-15T07:29:04.695Z,39.63
2022-11-15T07:31:51.781Z,36.13
2022-11-15T07:34:41.175Z,34.87
2022-11-15T07:37:33.890Z,38.23
2022-11-15T07:40:47.701Z,38.80
2022-11-15T07:43:35.422Z,37.30
2022-11-15T07:46:22.330Z,43.00
2022-11-15T07:49:31.145Z,44.33
2022-11-15T07:52:17.955Z,48.27
2022-11-15T07:55:04.803Z,78.93
2022-11-15T07:57:51.817Z,47.37
2022-11-15T08:00:40.896Z,42.50
2022-11-15T08:03:27.536Z,43.20
2022-11-15T08:06:21.794Z,38.07
2022-11-15T08:09:07.726Z,40.43
2022-11-15T08:11:53.466Z,35.83
2022-11-15T08:14:39.797Z,36.47
2022-11-15T08:17:33.898Z,36.20
2022-11-15T08:20:20.761Z,35.03
2022-11-15T08:23:08.967Z,40.63
2022-11-15T08:26:00.803Z,36.87
2022-11-15T08:29:01.611Z,36.37
2022-11-15T08:31:48.440Z,34.53
2022-11-15T08:34:34.600Z,33.47
2022-11-15T08:37:21.752Z,32.47
2022-11-15T08:40:11.254Z,31.00
2022-11-15T08:42:59.830Z,35.10
2022-11-15T08:45:49.896Z,29.07
2022-11-15T08:48:37.634Z,29.43
2022-11-15T08:51:24.504Z,30.30
2022-11-15T08:54:10.255Z,32.27
2022-11-15T08:57:10.551Z,32.97
2022-11-15T08:59:57.415Z,33.97
2022-11-15T09:03:04.828Z,34.07
2022-11-15T09:05:56.703Z,33.57
2022-11-15T09:09:21.298Z,37.03
2022-11-15T09:12:33.127Z,34.20
2022-11-15T09:15:56.902Z,34.87
2022-11-15T09:18:46.262Z,36.97
2022-11-15T09:22:11.510Z,35.80
2022-11-15T09:24:59.496Z,34.53
2022-11-15T09:27:59.826Z,34.67
2022-11-15T09:30:45.756Z,34.10
2022-11-15T09:33:57.867Z,42.13
2022-11-15T09:36:43.700Z,33.80
2022-11-15T09:39:31.336Z,45.53
2022-11-15T09:42:52.728Z,37.17
2022-11-15T09:45:46.788Z,38.73
2022-11-15T09:48:35.480Z,37.37
2022-11-15T09:51:49.772Z,34.53
2022-11-15T09:54:55.832Z,36.00
2022-11-15T09:57:49.538Z,34.37
2022-11-15T10:00:49.782Z,38.07
2022-11-15T10:03:40.416Z,40.03
2022-11-15T10:06:24.145Z,37.47
2022-11-15T10:08:57.079Z,38.80
2022-11-15T10:11:39.235Z,38.13
2022-11-15T10:14:21.234Z,37.37
2022-11-15T10:17:17.640Z,38.07
2022-11-15T10:19:54.479Z,36.90
2022-11-15T10:22:52.128Z,34.53
2022-11-15T10:25:29.115Z,35.33
2022-11-15T10:28:02.801Z,35.63
2022-11-15T10:30:39.583Z,33.80
2022-11-15T10:33:38.121Z,32.17
2022-11-15T10:36:16.850Z,32.00
2022-11-15T10:38:51.070Z,32.43
2022-11-15T10:41:38.588Z,32.37
2022-11-15T10:44:24.477Z,31.57
2022-11-15T10:47:23.902Z,32.67
2022-11-15T10:50:05.616Z,29.27
2022-11-15T10:52:49.007Z,31.13
2022-11-15T10:55:45.086Z,31.27
2022-11-15T11:02:35.754Z,30.17
2022-11-15T11:05:38.153Z,30.10
2022-11-15T11:08:46.857Z,29.80
2022-11-15T11:11:18.294Z,29.90
2022-11-15T11:14:13.969Z,30.67
2022-11-15T11:17:36.840Z,31.83
2022-11-15T11:20:35.952Z,33.93
2022-11-15T11:23:42.128Z,33.13
2022-11-15T11:26:18.190Z,30.77
2022-11-15T11:29:04.334Z,32.13
2022-11-15T11:31:35.443Z,34.70
2022-11-15T11:34:32.917Z,32.47
2022-11-15T11:37:39.581Z,33.10
2022-11-15T11:40:17.323Z,30.90
2022-11-15T11:43:21.800Z,31.73
2022-11-15T11:46:04.114Z,33.17
2022-11-15T11:48:44.245Z,38.73
2022-11-15T11:52:01.872Z,35.03
2022-11-15T11:54:48.168Z,35.53
2022-11-15T11:57:58.304Z,31.53
2022-11-15T12:00:29.552Z,32.10
2022-11-15T12:03:25.554Z,33.20
2022-11-15T12:06:02.144Z,61.80
2022-11-15T12:08:49.222Z,51.63
2022-11-15T12:11:41.891Z,40.60
2022-11-15T12:14:26.410Z,35.20
2022-11-15T12:16:53.642Z,42.60
2022-11-15T12:19:21.674Z,34.83
2022-11-15T12:22:11.728Z,36.67
2022-11-15T12:24:46.960Z,35.57
2022-11-15T12:27:40.018Z,36.13
2022-11-15T12:30:20.956Z,38.80
2022-11-15T12:33:30.657Z,37.90
2022-11-15T12:36:13.767Z,36.37
2022-11-15T12:39:03.742Z,37.93
2022-11-15T12:41:38.071Z,41.83
2022-11-15T12:44:33.001Z,52.53
2022-11-15T12:47:23.395Z,58.93
2022-11-15T12:49:55.198Z,54.00
2022-11-15T12:52:23.458Z,48.70
2022-11-15T12:54:54.574Z,42.03
2022-11-15T12:57:41.025Z,40.10
2022-11-15T13:00:16.312Z,42.20
2022-11-15T13:02:48.472Z,41.37
2022-11-15T13:05:16.637Z,41.50
2022-11-15T13:07:45.412Z,40.80
2022-11-15T13:10:28.261Z,40.57
2022-11-15T13:13:02.450Z,42.90
2022-11-15T13:15:52.901Z,44.30
2022-11-15T13:18:34.363Z,48.70
2022-11-15T13:21:23.085Z,46.47
2022-11-15T13:23:56.584Z,43.93
2022-11-15T13:26:33.856Z,67.70
2022-11-15T13:29:01.789Z,62.00
2022-11-15T13:31:33.296Z,49.73
2022-11-15T13:37:31.263Z,39.60
2022-11-15T13:40:21.986Z,41.23
2022-11-15T13:42:52.618Z,36.70
2022-11-15T13:45:21.369Z,38.47
2022-11-15T13:47:54.732Z,37.53
2022-11-15T13:50:26.377Z,40.47
2022-11-15T13:52:58.827Z,42.00
2022-11-15T13:55:27.843Z,41.03
2022-11-15T13:58:00.918Z,39.63
2022-11-15T14:00:41.288Z,40.77
2022-11-15T14:03:16.690Z,41.33
2022-11-15T14:05:45.790Z,40.30
2022-11-15T14:08:25.566Z,40.23
2022-11-15T14:11:18.089Z,40.93
2022-11-15T14:14:08.509Z,37.60
2022-11-15T14:16:43.315Z,42.10
2022-11-15T14:19:50.038Z,44.20
2022-11-15T14:22:24.047Z,41.90
2022-11-15T14:25:14.098Z,45.40
2022-11-15T14:28:29.667Z,43.27
2022-11-15T14:30:59.553Z,43.37
2022-11-15T14:33:35.916Z,43.67
2022-11-15T14:36:14.967Z,42.33
2022-11-15T14:38:44.040Z,44.60
2022-11-15T14:41:25.980Z,47.67
2022-11-15T14:43:54.372Z,44.87
2022-11-15T14:46:24.525Z,84.10
2022-11-15T14:48:52.731Z,65.13
2022-11-15T14:51:20.990Z,62.30
2022-11-15T14:53:49.551Z,51.20
2022-11-15T14:56:17.834Z,47.47
2022-11-15T14:58:44.973Z,49.30
2022-11-15T15:01:25.013Z,49.10
2022-11-15T15:03:57.068Z,43.23
2022-11-15T15:06:26.353Z,43.73
2022-11-15T15:08:58.573Z,44.20
2022-11-15T15:11:29.486Z,42.73
2022-11-15T15:14:02.317Z,44.53
2022-11-15T15:16:31.868Z,40.97
2022-11-15T15:19:03.446Z,42.30
2022-11-15T15:21:37.184Z,42.90
2022-11-15T15:24:05.825Z,45.37
2022-11-15T15:26:37.763Z,45.87
2022-11-15T15:29:10.092Z,46.47
2022-11-15T15:31:38.299Z,50.17
2022-11-15T15:34:06.029Z,47.30
2022-11-15T15:36:33.293Z,45.30
2022-11-15T15:39:02.420Z,48.97
2022-11-15T15:41:29.695Z,46.63
2022-11-15T15:43:56.869Z,49.43
2022-11-15T15:46:30.150Z,47.47
2022-11-15T15:48:58.330Z,48.03
2022-11-15T15:51:25.477Z,49.03
2022-11-15T15:53:59.367Z,50.07
2022-11-15T15:56:26.701Z,48.70
2022-11-15T15:58:56.636Z,51.50
2022-11-15T16:01:29.985Z,52.87
2022-11-15T16:03:57.232Z,49.07
2022-11-15T16:06:54.065Z,50.97
2022-11-15T16:09:43.359Z,45.67
2022-11-15T16:12:17.556Z,48.37
2022-11-15T16:14:44.696Z,49.03
2022-11-15T16:17:24.297Z,49.97
2022-11-15T16:19:51.466Z,49.93
2022-11-15T16:22:18.621Z,48.23
2022-11-15T16:24:46.571Z,45.10
2022-11-15T16:27:22.777Z,48.53
2022-11-15T16:29:51.347Z,51.53
2022-11-15T16:32:18.480Z,49.80
2022-11-15T16:34:52.029Z,48.97
2022-11-15T16:37:26.095Z,46.20
2022-11-15T16:39:57.105Z,47.43
2022-11-15T16:42:29.178Z,50.73
2022-11-15T16:44:56.381Z,47.90
2022-11-15T16:47:36.738Z,49.83
2022-11-15T16:50:04.272Z,48.47
2022-11-15T16:53:03.049Z,50.33
2022-11-15T16:55:31.409Z,49.33
2022-11-15T16:58:09.828Z,51.57
2022-11-15T17:01:03.031Z,51.07
2022-11-15T17:03:32.137Z,48.20
2022-11-15T17:06:00.648Z,51.53
2022-11-15T17:08:28.771Z,49.70
2022-11-15T17:10:55.964Z,51.07
2022-11-15T17:13:23.211Z,52.50
2022-11-15T17:15:50.393Z,49.87
2022-11-15T17:18:17.649Z,51.50
2022-11-15T17:20:44.929Z,51.30
2022-11-15T17:23:17.761Z,50.50
2022-11-15T17:25:45.075Z,49.93
2022-11-15T17:28:12.345Z,46.23
2022-11-15T17:30:43.307Z,47.13
2022-11-15T17:33:12.691Z,46.20
2022-11-15T17:36:12.471Z,46.00
2022-11-15T17:38:44.119Z,45.37
2022-11-15T17:41:50.458Z,46.70
2022-11-15T17:44:17.673Z,42.77
2022-11-15T17:46:59.151Z,45.00
2022-11-15T17:49:27.347Z,42.37
2022-11-15T17:51:54.520Z,42.43
2022-11-15T17:54:22.781Z,39.73
2022-11-15T18:00:48.560Z,35.23
2022-11-15T18:03:16.798Z,34.47
2022-11-15T18:05:47.268Z,35.47
2022-11-15T18:08:24.068Z,35.57
2022-11-15T18:11:04.793Z,33.60
2022-11-15T18:13:33.644Z,33.23
2022-11-15T18:16:04.161Z,34.87
2022-11-15T18:18:34.330Z,33.67
2022-11-15T18:21:22.862Z,33.67
2022-11-15T18:23:55.839Z,34.67
2022-11-15T18:26:27.169Z,34.87
2022-11-15T18:28:58.760Z,35.07
2022-11-15T18:31:37.096Z,34.23
2022-11-15T18:34:06.084Z,34.27
2022-11-15T18:36:40.305Z,33.87
2022-11-15T18:39:16.564Z,33.53
2022-11-15T18:42:16.595Z,34.37
2022-11-15T18:44:44.823Z,34.00
2022-11-15T18:47:24.443Z,33.87
2022-11-15T18:49:53.862Z,32.63
2022-11-15T18:52:21.024Z,32.53
2022-11-15T18:54:51.330Z,31.73
2022-11-15T18:57:31.506Z,32.17
2022-11-15T18:59:58.744Z,32.37
2022-11-15T19:02:38.164Z,32.20
2022-11-15T19:05:06.913Z,31.97
2022-11-15T19:07:34.201Z,29.73
2022-11-15T19:10:05.862Z,32.07
2022-11-15T19:12:36.195Z,30.97
2022-11-15T19:15:10.293Z,31.10
2022-11-15T19:17:41.217Z,31.37
2022-11-15T19:20:45.258Z,31.83
2022-11-15T19:23:12.553Z,31.93
2022-11-15T19:25:39.768Z,30.63
2022-11-15T19:28:09.029Z,31.80
2022-11-15T19:31:08.066Z,30.43
2022-11-15T19:33:38.389Z,29.77
2022-11-15T19:36:13.443Z,30.07
2022-11-15T19:38:42.352Z,30.83
2022-11-15T19:41:15.954Z,28.87
2022-11-15T19:43:48.532Z,27.80
2022-11-15T19:46:22.110Z,27.27
2022-11-15T19:48:55.731Z,27.43
2022-11-15T19:51:26.550Z,27.23
2022-11-15T19:54:09.916Z,28.83
2022-11-15T19:56:38.307Z,27.00
2022-11-15T19:59:23.770Z,28.17
2022-11-15T20:01:51.080Z,25.90
2022-11-15T20:04:18.480Z,28.13
2022-11-15T20:06:47.246Z,26.53
2022-11-15T20:09:53.971Z,27.97
2022-11-15T20:12:21.281Z,31.03
2022-11-15T20:14:51.469Z,29.07
2022-11-15T20:17:19.034Z,27.43
2022-11-15T20:20:12.993Z,27.03
2022-11-15T20:22:59.958Z,25.33
2022-11-15T20:25:31.700Z,24.00
2022-11-15T20:27:58.987Z,24.90
2022-11-15T20:30:27.329Z,25.20
2022-11-15T20:32:58.653Z,26.00
2022-11-15T20:35:33.883Z,25.80
2022-11-15T20:38:07.803Z,27.30
2022-11-15T20:40:50.678Z,27.80
2022-11-15T20:43:20.623Z,27.73
2022-11-15T20:45:52.942Z,28.03
2022-11-15T20:48:21.564Z,30.60
2022-11-15T20:51:21.265Z,29.97
2022-11-15T20:53:49.477Z,29.97
2022-11-15T20:56:21.932Z,31.10
2022-11-15T20:58:50.800Z,32.13
2022-11-15T21:01:29.196Z,32.77
2022-11-15T21:04:00.142Z,32.47
2022-11-15T21:06:29.948Z,30.60
2022-11-15T21:09:17.296Z,30.30
2022-11-15T21:12:07.491Z,29.23
2022-11-15T21:14:35.272Z,30.90
2022-11-15T21:17:12.205Z,27.87
2022-11-15T21:19:39.480Z,27.77
2022-11-15T21:22:14.368Z,28.53
2022-11-15T21:24:42.955Z,27.47
2022-11-15T21:27:19.640Z,29.57
2022-11-15T21:29:50.599Z,29.20
2022-11-15T21:32:29.665Z,29.00
2022-11-15T21:35:01.316Z,29.73
2022-11-15T21:37:28.575Z,27.43
2022-11-15T21:40:00.752Z,27.03
2022-11-15T21:42:32.645Z,27.90
2022-11-15T21:44:59.841Z,27.00
2022-11-15T21:47:27.076Z,28.73
2022-11-15T21:50:17.111Z,28.27
2022-11-15T21:52:47.351Z,27.87
2022-11-15T21:55:18.662Z,28.43
2022-11-15T21:57:46.857Z,28.53
2022-11-15T22:00:49.584Z,28.23
2022-11-15T22:03:16.834Z,28.23
2022-11-15T22:05:50.166Z,27.77
2022-11-15T22:08:17.331Z,25.77
2022-11-15T22:10:50.870Z,27.30
2022-11-15T22:13:19.926Z,27.40
2022-11-15T22:15:48.483Z,27.33
2022-11-15T22:18:15.803Z,28.03
2022-11-15T22:21:07.066Z,27.03
2022-11-15T22:23:36.632Z,28.73
2022-11-15T22:26:04.902Z,27.40
2022-11-15T22:28:32.535Z,30.73
2022-11-15T22:31:06.770Z,30.60
2022-11-15T22:33:39.180Z,33.27
2022-11-15T22:36:07.544Z,34.97
2022-11-15T22:38:59.519Z,35.13
2022-11-15T22:41:27.797Z,33.23
2022-11-15T22:43:54.932Z,34.50
2022-11-15T22:46:23.222Z,35.50
2022-11-15T22:49:02.116Z,34.87
2022-11-15T22:51:32.757Z,33.13
2022-11-15T22:54:32.628Z,34.87
2022-11-15T22:57:02.293Z,40.50
2022-11-15T22:59:53.053Z,45.53
2022-11-15T23:02:21.330Z,41.80
2022-11-15T23:04:51.658Z,37.47
2022-11-15T23:07:20.196Z,33.77
2022-11-15T23:10:15.530Z,36.53
2022-11-15T23:13:03.861Z,36.90
2022-11-15T23:16:08.168Z,38.27
2022-11-15T23:18:41.922Z,36.57
2022-11-15T23:21:11.882Z,34.03
2022-11-15T23:23:39.338Z,32.23
2022-11-15T23:26:08.171Z,32.53
2022-11-15T23:28:36.516Z,34.33
2022-11-15T23:31:26.833Z,33.57
2022-11-15T23:33:59.721Z,35.10
2022-11-15T23:36:29.454Z,37.70
2022-11-15T23:38:58.761Z,36.13
2022-11-15T23:41:26.039Z,34.87
2022-11-15T23:43:59.406Z,34.43
2022-11-15T23:46:39.030Z,38.53
2022-11-15T23:49:14.059Z,36.07
2022-11-15T23:51:41.889Z,36.63
2022-11-15T23:54:12.341Z,39.03
2022-11-15T23:56:51.994Z,38.57
2022-11-15T23:59:19.255Z,43.40
